Time;durP1;ratioP1;P1;durP2;ratioP2;P2;SDS_P1;SDS_P2;PMS_P1;PMS_P2;Temp;Humidity;BMP_temperature;BMP_pressure;BME280_temperature;BME280_humidity;BME280_pressure;Samples;Min_cycle;Max_cycle;Signal;HPM_P1;HPM_P2
2021/10/12 00:00:10;;;;;;;49.60;29.10;;;;;;;;;;5001526;28;20409;-79
2021/10/12 00:02:35;;;;;;;49.22;29.75;;;;;;;;;;5008840;28;20025;-80
2021/10/12 00:05:01;;;;;;;49.00;28.95;;;;;;;;;;4999827;28;20311;-79
2021/10/12 00:07:26;;;;;;;47.63;28.65;;;;;;;;;;5008699;28;20046;-80
2021/10/12 00:09:51;;;;;;;52.97;30.42;;;;;;;;;;5001599;28;20030;-77
2021/10/12 00:12:16;;;;;;;51.70;31.40;;;;;;;;;;5000820;28;20049;-77
2021/10/12 00:14:41;;;;;;;49.15;28.70;;;;;;;;;;5011502;28;20036;-78
2021/10/12 00:17:07;;;;;;;49.20;29.42;;;;;;;;;;5000650;28;20500;-77
2021/10/12 00:19:32;;;;;;;54.80;29.95;;;;;;;;;;4998313;28;20050;-78
2021/10/12 00:21:58;;;;;;;48.60;28.42;;;;;;;;;;5002645;28;20032;-78
2021/10/12 00:24:23;;;;;;;49.42;29.73;;;;;;;;;;5003898;28;20026;-79
2021/10/12 00:26:48;;;;;;;49.75;29.23;;;;;;;;;;5003417;28;20106;-77
2021/10/12 00:29:13;;;;;;;43.25;27.35;;;;;;;;;;4999869;28;20026;-78
2021/10/12 00:31:38;;;;;;;52.05;30.15;;;;;;;;;;5002535;28;20030;-77
2021/10/12 00:34:04;;;;;;;49.65;29.70;;;;;;;;;;5001836;28;20069;-77
2021/10/12 00:36:29;;;;;;;49.33;29.38;;;;;;;;;;5002609;28;20069;-77
2021/10/12 00:38:54;;;;;;;46.30;27.67;;;;;;;;;;4998233;28;20113;-77
2021/10/12 00:41:20;;;;;;;48.00;28.73;;;;;;;;;;4997769;28;20030;-78
2021/10/12 00:43:45;;;;;;;49.90;30.08;;;;;;;;;;5003668;28;20042;-77
2021/10/12 00:46:11;;;;;;;48.60;28.35;;;;;;;;;;5000746;28;20065;-78
2021/10/12 00:48:36;;;;;;;50.78;28.38;;;;;;;;;;5008200;28;20030;-78
2021/10/12 00:51:01;;;;;;;50.78;29.38;;;;;;;;;;5001962;28;20383;-78
2021/10/12 00:53:27;;;;;;;48.65;26.90;;;;;;;;;;5007609;28;20033;-78
2021/10/12 00:55:52;;;;;;;51.40;28.48;;;;;;;;;;5004399;28;20057;-78
2021/10/12 00:58:18;;;;;;;49.80;28.17;;;;;;;;;;5002799;28;20489;-80
2021/10/12 01:00:43;;;;;;;49.97;27.85;;;;;;;;;;5003292;28;20039;-78
2021/10/12 01:03:09;;;;;;;49.17;28.20;;;;;;;;;;5004322;28;20597;-78
2021/10/12 01:05:34;;;;;;;49.20;28.00;;;;;;;;;;5012224;28;20029;-78
2021/10/12 01:07:59;;;;;;;47.88;27.55;;;;;;;;;;5013757;28;20040;-78
2021/10/12 01:10:24;;;;;;;47.35;26.63;;;;;;;;;;5008424;28;20021;-77
2021/10/12 01:12:50;;;;;;;46.28;26.27;;;;;;;;;;5008919;28;20065;-78
2021/10/12 01:15:15;;;;;;;50.67;28.40;;;;;;;;;;4998293;28;20516;-79
2021/10/12 01:17:40;;;;;;;45.95;25.65;;;;;;;;;;5003070;28;20461;-79
2021/10/12 01:20:07;;;;;;;47.47;26.05;;;;;;;;;;5001889;28;20109;-77
2021/10/12 01:22:32;;;;;;;50.80;27.90;;;;;;;;;;4996748;28;20037;-78
2021/10/12 01:24:57;;;;;;;47.47;27.92;;;;;;;;;;4998916;28;20018;-78
2021/10/12 01:27:23;;;;;;;47.63;26.75;;;;;;;;;;4999958;28;20071;-78
2021/10/12 01:29:48;;;;;;;49.75;27.10;;;;;;;;;;5003886;28;20021;-78
2021/10/12 01:32:14;;;;;;;52.28;28.65;;;;;;;;;;4999500;28;20038;-78
2021/10/12 01:34:39;;;;;;;47.78;27.65;;;;;;;;;;5003449;28;20068;-78
2021/10/12 01:37:04;;;;;;;54.05;29.38;;;;;;;;;;5001574;28;20022;-77
2021/10/12 01:39:29;;;;;;;52.83;28.20;;;;;;;;;;5002364;28;20018;-79
2021/10/12 01:41:55;;;;;;;49.80;27.20;;;;;;;;;;4998789;28;20109;-78
2021/10/12 01:44:20;;;;;;;58.08;29.52;;;;;;;;;;5001749;28;20018;-78
2021/10/12 01:46:45;;;;;;;55.15;30.00;;;;;;;;;;4994912;28;20066;-78
2021/10/12 01:49:10;;;;;;;53.65;29.25;;;;;;;;;;4997194;28;20037;-77
2021/10/12 01:51:36;;;;;;;53.75;28.17;;;;;;;;;;5003129;28;20030;-77
2021/10/12 01:54:01;;;;;;;54.75;28.85;;;;;;;;;;5003340;28;20040;-78
2021/10/12 01:56:29;;;;;;;49.03;27.73;;;;;;;;;;5000235;28;20089;-77
2021/10/12 01:58:55;;;;;;;55.35;28.70;;;;;;;;;;5001971;28;20049;-78
2021/10/12 02:01:21;;;;;;;52.65;28.75;;;;;;;;;;5007012;28;20026;-77
2021/10/12 02:03:46;;;;;;;51.22;29.45;;;;;;;;;;4998893;28;20042;-78
2021/10/12 02:06:11;;;;;;;52.65;28.75;;;;;;;;;;5001481;28;20046;-78
2021/10/12 02:08:36;;;;;;;50.25;27.98;;;;;;;;;;4995850;28;20105;-78
2021/10/12 02:11:02;;;;;;;56.00;31.48;;;;;;;;;;4992064;28;20117;-78
2021/10/12 02:13:27;;;;;;;50.90;27.95;;;;;;;;;;4998189;28;20065;-77
2021/10/12 02:15:52;;;;;;;50.67;27.73;;;;;;;;;;4999035;28;20465;-78
2021/10/12 02:18:18;;;;;;;53.88;28.63;;;;;;;;;;5000157;28;20022;-78
2021/10/12 02:20:43;;;;;;;51.17;28.30;;;;;;;;;;4997728;28;20095;-77
2021/10/12 02:23:08;;;;;;;50.58;28.05;;;;;;;;;;5006032;28;20101;-77
2021/10/12 02:25:33;;;;;;;58.10;31.10;;;;;;;;;;4999871;28;20062;-78
2021/10/12 02:27:58;;;;;;;62.47;31.40;;;;;;;;;;4997781;28;20039;-79
2021/10/12 02:30:24;;;;;;;59.10;29.25;;;;;;;;;;4994881;28;20169;-79
2021/10/12 02:32:49;;;;;;;57.40;30.77;;;;;;;;;;4997700;28;20095;-78
2021/10/12 02:35:14;;;;;;;63.67;32.28;;;;;;;;;;4996653;28;20021;-78
2021/10/12 02:37:39;;;;;;;62.97;30.75;;;;;;;;;;5002736;28;20030;-77
2021/10/12 02:40:05;;;;;;;62.00;31.20;;;;;;;;;;4997243;28;20185;-77
2021/10/12 02:42:30;;;;;;;58.65;31.60;;;;;;;;;;4991170;28;20033;-77
2021/10/12 02:44:55;;;;;;;63.38;30.02;;;;;;;;;;4997333;28;20085;-77
2021/10/12 02:47:20;;;;;;;65.40;30.67;;;;;;;;;;4997510;28;20041;-77
2021/10/12 02:49:46;;;;;;;57.35;30.50;;;;;;;;;;4994908;28;20034;-78
2021/10/12 02:52:11;;;;;;;57.45;30.40;;;;;;;;;;5000295;28;20061;-77
2021/10/12 02:54:36;;;;;;;60.00;31.23;;;;;;;;;;5006919;28;20824;-78
2021/10/12 02:57:01;;;;;;;57.63;28.92;;;;;;;;;;5000778;28;20058;-77
2021/10/12 02:59:27;;;;;;;63.10;30.83;;;;;;;;;;4997983;28;20505;-78
2021/10/12 03:01:52;;;;;;;57.28;28.98;;;;;;;;;;5005217;28;20033;-77
2021/10/12 03:04:17;;;;;;;56.63;29.88;;;;;;;;;;5004249;28;20021;-77
2021/10/12 03:06:42;;;;;;;60.70;29.63;;;;;;;;;;5003645;28;20152;-78
2021/10/12 03:09:08;;;;;;;56.70;29.80;;;;;;;;;;5000558;28;20359;-78
2021/10/12 03:11:33;;;;;;;55.28;29.13;;;;;;;;;;4998651;28;20034;-78
2021/10/12 03:13:58;;;;;;;60.05;30.02;;;;;;;;;;5004701;28;20042;-77
2021/10/12 03:16:24;;;;;;;60.47;32.83;;;;;;;;;;5008181;28;20025;-79
2021/10/12 03:18:50;;;;;;;61.75;31.00;;;;;;;;;;5008841;28;20025;-78
2021/10/12 03:21:15;;;;;;;63.17;30.10;;;;;;;;;;5004172;28;20526;-77
2021/10/12 03:23:41;;;;;;;57.75;30.70;;;;;;;;;;5005188;28;20018;-78
2021/10/12 03:26:06;;;;;;;54.30;28.38;;;;;;;;;;4999181;28;20482;-77
2021/10/12 03:28:31;;;;;;;62.85;31.10;;;;;;;;;;5006010;28;20375;-78
2021/10/12 03:30:57;;;;;;;55.67;28.15;;;;;;;;;;5006336;28;20072;-77
2021/10/12 03:33:22;;;;;;;58.90;28.70;;;;;;;;;;4998870;28;20125;-77
2021/10/12 03:35:55;;;;;;;55.88;30.08;;;;;;;;;;5000828;28;20026;-77
2021/10/12 03:38:20;;;;;;;58.95;30.65;;;;;;;;;;5005620;28;20755;-77
2021/10/12 03:40:46;;;;;;;54.20;27.10;;;;;;;;;;5001126;28;20026;-77
2021/10/12 03:43:11;;;;;;;53.03;27.85;;;;;;;;;;4998359;28;20030;-77
2021/10/12 03:45:36;;;;;;;55.08;28.80;;;;;;;;;;5006886;28;20030;-77
2021/10/12 03:48:01;;;;;;;54.38;27.13;;;;;;;;;;5007882;28;20030;-77
2021/10/12 03:50:26;;;;;;;53.50;27.77;;;;;;;;;;5006307;28;20022;-77
2021/10/12 03:52:51;;;;;;;54.30;29.38;;;;;;;;;;5002674;28;20041;-77
2021/10/12 03:55:17;;;;;;;60.33;29.35;;;;;;;;;;5009303;28;20069;-77
2021/10/12 03:57:42;;;;;;;56.30;29.58;;;;;;;;;;4999574;28;20523;-78
2021/10/12 04:00:07;;;;;;;54.33;29.20;;;;;;;;;;5019479;28;20046;-77
2021/10/12 04:02:32;;;;;;;59.15;30.35;;;;;;;;;;5020612;28;20034;-78
2021/10/12 04:04:58;;;;;;;63.60;29.60;;;;;;;;;;5022846;28;20050;-78
2021/10/12 04:07:23;;;;;;;57.83;29.42;;;;;;;;;;5024104;28;20186;-78
2021/10/12 04:09:48;;;;;;;62.97;29.90;;;;;;;;;;5019087;28;20022;-78
2021/10/12 04:12:13;;;;;;;59.25;28.25;;;;;;;;;;5015034;28;20057;-77
2021/10/12 04:14:38;;;;;;;54.22;29.55;;;;;;;;;;5020954;28;20416;-79
2021/10/12 04:17:04;;;;;;;58.88;29.33;;;;;;;;;;5015202;28;20030;-79
2021/10/12 04:19:29;;;;;;;67.32;31.75;;;;;;;;;;5005697;28;20030;-78
2021/10/12 04:21:54;;;;;;;68.07;33.00;;;;;;;;;;5002292;28;20022;-79
2021/10/12 04:24:19;;;;;;;62.47;29.67;;;;;;;;;;4997640;28;20498;-77
2021/10/12 04:26:44;;;;;;;63.42;31.83;;;;;;;;;;4998836;28;20048;-77
2021/10/12 04:29:10;;;;;;;63.25;31.48;;;;;;;;;;5009925;28;20088;-78
2021/10/12 04:31:35;;;;;;;62.95;29.52;;;;;;;;;;5002319;28;20108;-78
2021/10/12 04:34:00;;;;;;;64.15;31.10;;;;;;;;;;4995899;28;20546;-77
2021/10/12 04:36:26;;;;;;;64.70;31.15;;;;;;;;;;4998817;28;20026;-77
2021/10/12 04:38:51;;;;;;;58.63;29.42;;;;;;;;;;4996324;28;20041;-77
2021/10/12 04:41:16;;;;;;;62.20;30.20;;;;;;;;;;5001441;28;20025;-77
2021/10/12 04:43:41;;;;;;;63.22;30.80;;;;;;;;;;5010668;28;20032;-78
2021/10/12 04:46:06;;;;;;;62.92;30.60;;;;;;;;;;5006422;28;20479;-77
2021/10/12 04:48:32;;;;;;;64.68;29.98;;;;;;;;;;5006717;28;20425;-78
2021/10/12 04:50:57;;;;;;;66.28;32.63;;;;;;;;;;5006610;28;20057;-78
2021/10/12 04:53:22;;;;;;;61.85;29.85;;;;;;;;;;5000749;28;20030;-78
2021/10/12 04:55:48;;;;;;;64.97;31.05;;;;;;;;;;5007134;28;20052;-79
2021/10/12 04:58:13;;;;;;;62.60;28.35;;;;;;;;;;5009583;28;20029;-77
2021/10/12 05:00:38;;;;;;;65.38;30.52;;;;;;;;;;4997932;28;20527;-77
2021/10/12 05:03:05;;;;;;;63.75;30.92;;;;;;;;;;4998771;28;20040;-77
2021/10/12 05:05:30;;;;;;;66.38;30.40;;;;;;;;;;5002256;28;20026;-77
2021/10/12 05:07:55;;;;;;;60.40;29.63;;;;;;;;;;5005055;28;20049;-78
2021/10/12 05:10:20;;;;;;;56.85;27.98;;;;;;;;;;4999442;28;20049;-78
2021/10/12 05:12:45;;;;;;;64.32;30.98;;;;;;;;;;5005130;28;20030;-77
2021/10/12 05:15:11;;;;;;;62.95;29.17;;;;;;;;;;5000920;28;20113;-77
2021/10/12 05:17:38;;;;;;;60.33;30.30;;;;;;;;;;5000797;28;20018;-76
2021/10/12 05:20:04;;;;;;;60.30;28.60;;;;;;;;;;4999377;28;20490;-76
2021/10/12 05:22:30;;;;;;;64.78;30.85;;;;;;;;;;5006450;28;20073;-76
2021/10/12 05:24:55;;;;;;;60.03;29.25;;;;;;;;;;5008545;28;20498;-62
2021/10/12 05:27:20;;;;;;;55.15;28.10;;;;;;;;;;4999517;28;20026;-61
2021/10/12 05:29:45;;;;;;;58.13;28.38;;;;;;;;;;4998104;28;20165;-62
2021/10/12 05:32:10;;;;;;;55.92;27.77;;;;;;;;;;5003285;28;20401;-62
2021/10/12 05:34:36;;;;;;;61.13;29.38;;;;;;;;;;5000935;28;20034;-61
2021/10/12 05:37:01;;;;;;;56.38;28.23;;;;;;;;;;4996473;28;20101;-61
2021/10/12 05:39:28;;;;;;;57.67;28.77;;;;;;;;;;4990324;28;20023;-61
2021/10/12 05:41:54;;;;;;;54.92;27.95;;;;;;;;;;5004327;28;20109;-60
2021/10/12 05:44:19;;;;;;;53.97;27.13;;;;;;;;;;4998671;28;20112;-60
2021/10/12 05:46:44;;;;;;;57.90;27.75;;;;;;;;;;4999088;28;20021;-63
2021/10/12 05:49:10;;;;;;;62.42;29.55;;;;;;;;;;4995900;28;20030;-61
2021/10/12 05:51:35;;;;;;;65.38;30.30;;;;;;;;;;4996350;28;20100;-62
2021/10/12 05:54:00;;;;;;;58.15;28.38;;;;;;;;;;4998294;28;20520;-60
2021/10/12 05:56:28;;;;;;;61.00;28.52;;;;;;;;;;5002700;28;20045;-61
2021/10/12 05:58:54;;;;;;;56.35;27.33;;;;;;;;;;5001365;28;20564;-61
2021/10/12 06:01:20;;;;;;;57.83;29.20;;;;;;;;;;4991451;28;20066;-62
2021/10/12 06:03:45;;;;;;;62.97;29.33;;;;;;;;;;5000789;28;20041;-61
2021/10/12 06:06:13;;;;;;;57.78;28.35;;;;;;;;;;4997710;28;20486;-62
2021/10/12 06:08:39;;;;;;;53.85;27.98;;;;;;;;;;4997349;28;20091;-62
2021/10/12 06:11:05;;;;;;;54.58;28.13;;;;;;;;;;5005976;28;20034;-60
2021/10/12 06:13:31;;;;;;;58.55;29.15;;;;;;;;;;5002396;28;20069;-61
2021/10/12 06:15:57;;;;;;;58.28;30.35;;;;;;;;;;4997745;28;20070;-60
2021/10/12 06:18:22;;;;;;;53.65;27.40;;;;;;;;;;5001086;28;20037;-61
2021/10/12 06:20:48;;;;;;;55.65;28.67;;;;;;;;;;4992246;28;20058;-62
2021/10/12 06:23:13;;;;;;;53.30;29.63;;;;;;;;;;4995808;28;20028;-61
2021/10/12 06:25:39;;;;;;;56.65;28.48;;;;;;;;;;4995584;28;20030;-62
2021/10/12 06:28:05;;;;;;;61.15;29.33;;;;;;;;;;4994403;28;20121;-61
2021/10/12 06:30:30;;;;;;;58.05;28.08;;;;;;;;;;4995344;28;20022;-62
2021/10/12 06:32:55;;;;;;;58.03;28.42;;;;;;;;;;4995798;28;20046;-61
2021/10/12 06:35:21;;;;;;;56.03;28.77;;;;;;;;;;4995115;28;20026;-62
2021/10/12 06:37:46;;;;;;;54.28;29.20;;;;;;;;;;5005591;28;20037;-61
2021/10/12 06:40:12;;;;;;;57.53;28.23;;;;;;;;;;4996025;28;20412;-60
2021/10/12 06:42:37;;;;;;;58.00;29.08;;;;;;;;;;4992556;28;20014;-61
2021/10/12 06:45:02;;;;;;;51.95;26.55;;;;;;;;;;4995235;28;20030;-61
2021/10/12 06:47:27;;;;;;;49.10;26.73;;;;;;;;;;4999354;28;20030;-61
2021/10/12 06:49:52;;;;;;;57.05;28.83;;;;;;;;;;4999543;28;20030;-61
2021/10/12 06:52:18;;;;;;;52.42;28.17;;;;;;;;;;4993749;28;20061;-61
2021/10/12 06:54:44;;;;;;;51.95;27.63;;;;;;;;;;4996578;28;20108;-61
2021/10/12 06:57:11;;;;;;;54.40;26.88;;;;;;;;;;4996789;28;20014;-62
2021/10/12 06:59:36;;;;;;;54.30;27.27;;;;;;;;;;5000649;28;20081;-60
2021/10/12 07:02:02;;;;;;;49.75;26.80;;;;;;;;;;5001895;28;20164;-61
2021/10/12 07:04:27;;;;;;;54.63;26.15;;;;;;;;;;4997111;28;20026;-61
2021/10/12 07:06:52;;;;;;;50.55;27.25;;;;;;;;;;5000462;28;20030;-61
2021/10/12 07:09:18;;;;;;;49.63;26.48;;;;;;;;;;4996363;28;20029;-61
2021/10/12 07:11:43;;;;;;;47.35;26.20;;;;;;;;;;4992810;28;20080;-62
2021/10/12 07:14:09;;;;;;;51.25;26.58;;;;;;;;;;4991347;28;20057;-61
2021/10/12 07:16:34;;;;;;;47.55;25.77;;;;;;;;;;4996600;28;20409;-61
2021/10/12 07:18:59;;;;;;;51.38;26.73;;;;;;;;;;5001055;28;20064;-61
2021/10/12 07:21:25;;;;;;;49.25;25.88;;;;;;;;;;5007776;28;20057;-62
2021/10/12 07:23:50;;;;;;;48.78;25.65;;;;;;;;;;5007447;28;20065;-60
2021/10/12 07:26:16;;;;;;;48.10;26.77;;;;;;;;;;4996400;28;20903;-61
2021/10/12 07:28:41;;;;;;;48.30;25.85;;;;;;;;;;5001196;28;20026;-61
2021/10/12 07:31:07;;;;;;;47.00;27.13;;;;;;;;;;5003157;28;20037;-61
2021/10/12 07:33:32;;;;;;;47.88;26.30;;;;;;;;;;5001457;28;20076;-61
2021/10/12 07:35:57;;;;;;;47.92;25.85;;;;;;;;;;4994814;28;20068;-61
2021/10/12 07:38:23;;;;;;;51.90;26.75;;;;;;;;;;5003220;28;20482;-62
2021/10/12 07:40:48;;;;;;;50.78;27.23;;;;;;;;;;5006384;28;20428;-60
2021/10/12 07:43:13;;;;;;;49.42;27.08;;;;;;;;;;4996914;28;20034;-60
2021/10/12 07:45:38;;;;;;;52.65;26.90;;;;;;;;;;4995018;28;20044;-61
2021/10/12 07:48:04;;;;;;;47.67;25.50;;;;;;;;;;5003330;28;20112;-61
2021/10/12 07:50:29;;;;;;;45.92;26.83;;;;;;;;;;5003613;28;20033;-61
2021/10/12 07:52:54;;;;;;;53.08;26.10;;;;;;;;;;4993246;28;20125;-61
2021/10/12 07:55:55;;;;;;;49.80;26.95;;;;;;;;;;5001115;28;20030;-60
2021/10/12 07:58:11;;;;;;;53.97;25.45;;;;;;;;;;4994651;28;20512;-60
2021/10/12 08:00:36;;;;;;;48.85;26.08;;;;;;;;;;4997002;28;20046;-61
2021/10/12 08:03:02;;;;;;;46.47;25.67;;;;;;;;;;5001647;28;20036;-60
2021/10/12 08:05:28;;;;;;;47.47;26.48;;;;;;;;;;5005430;28;20040;-61
2021/10/12 08:07:55;;;;;;;45.25;25.65;;;;;;;;;;4997872;28;20138;-60
2021/10/12 08:10:20;;;;;;;46.25;26.55;;;;;;;;;;5003888;28;20100;-60
2021/10/12 08:12:47;;;;;;;49.22;25.38;;;;;;;;;;4999145;28;20469;-60
2021/10/12 08:15:12;;;;;;;42.30;24.65;;;;;;;;;;5002837;28;20026;-61
2021/10/12 08:17:38;;;;;;;46.08;25.65;;;;;;;;;;5004033;28;20492;-61
2021/10/12 08:20:04;;;;;;;46.75;25.90;;;;;;;;;;5007485;28;20018;-61
2021/10/12 08:22:29;;;;;;;43.15;23.95;;;;;;;;;;5004259;28;20634;-62
2021/10/12 08:24:54;;;;;;;46.78;24.20;;;;;;;;;;4997998;28;20081;-61
2021/10/12 08:27:19;;;;;;;39.38;23.63;;;;;;;;;;5001927;28;20026;-61
2021/10/12 08:29:45;;;;;;;43.40;24.15;;;;;;;;;;4996755;28;20053;-61
2021/10/12 08:32:10;;;;;;;42.22;24.00;;;;;;;;;;5004064;28;20029;-61
2021/10/12 08:34:35;;;;;;;45.95;23.77;;;;;;;;;;5004133;28;20500;-60
2021/10/12 08:37:00;;;;;;;37.15;22.27;;;;;;;;;;5001799;28;20385;-61
2021/10/12 08:39:33;;;;;;;35.58;20.17;;;;;;;;;;4996757;28;20105;-60
2021/10/12 08:42:03;;;;;;;36.15;21.23;;;;;;;;;;5006477;28;20450;-62
2021/10/12 08:44:28;;;;;;;36.05;20.50;;;;;;;;;;4996780;28;20481;-61
2021/10/12 08:46:54;;;;;;;31.02;18.17;;;;;;;;;;5001401;28;20030;-60
2021/10/12 08:49:19;;;;;;;31.30;17.98;;;;;;;;;;5003946;28;20396;-62
2021/10/12 08:51:44;;;;;;;27.17;15.55;;;;;;;;;;4999289;28;20017;-60
2021/10/12 08:54:11;;;;;;;27.67;15.80;;;;;;;;;;4997884;28;20054;-61
2021/10/12 08:56:36;;;;;;;21.65;12.13;;;;;;;;;;5008565;28;20034;-61
2021/10/12 08:59:02;;;;;;;19.63;11.27;;;;;;;;;;5007415;28;20081;-60
2021/10/12 09:01:30;;;;;;;20.30;11.23;;;;;;;;;;4999117;28;20541;-61
2021/10/12 09:06:31;;;;;;;16.83;10.48;;;;;;;;;;5003712;28;20030;-61
2021/10/12 09:09:00;;;;;;;13.60;8.60;;;;;;;;;;4995925;28;20038;-60
2021/10/12 09:11:27;;;;;;;14.05;8.60;;;;;;;;;;4999324;28;20073;-61
2021/10/12 09:13:58;;;;;;;12.98;7.53;;;;;;;;;;4991437;28;20127;-60
2021/10/12 09:16:29;;;;;;;10.90;6.95;;;;;;;;;;4996582;28;20022;-60
2021/10/12 09:18:55;;;;;;;12.05;7.15;;;;;;;;;;4996831;28;20061;-61
2021/10/12 09:21:25;;;;;;;13.32;7.63;;;;;;;;;;4995357;28;20022;-60
2021/10/12 09:23:51;;;;;;;11.57;7.50;;;;;;;;;;5002579;28;20488;-62
2021/10/12 09:26:24;;;;;;;14.52;8.60;;;;;;;;;;4990031;28;20026;-62
2021/10/12 09:28:50;;;;;;;14.18;9.13;;;;;;;;;;5003475;28;20049;-61
2021/10/12 09:31:15;;;;;;;17.95;9.95;;;;;;;;;;5009612;28;20025;-60
2021/10/12 09:33:47;;;;;;;19.45;10.10;;;;;;;;;;5008261;28;20390;-60
2021/10/12 09:36:25;;;;;;;22.20;12.18;;;;;;;;;;4995967;28;20030;-62
2021/10/12 09:38:50;;;;;;;23.33;13.63;;;;;;;;;;4997186;28;20018;-62
2021/10/12 09:41:16;;;;;;;27.80;13.85;;;;;;;;;;4990731;28;20026;-61
2021/10/12 09:43:41;;;;;;;23.85;13.40;;;;;;;;;;4991056;28;20026;-62
2021/10/12 09:46:20;;;;;;;19.02;11.55;;;;;;;;;;4992613;28;20042;-60
2021/10/12 09:48:45;;;;;;;16.65;10.13;;;;;;;;;;5003696;28;20022;-62
2021/10/12 09:51:11;;;;;;;16.15;10.30;;;;;;;;;;4991102;28;20028;-62
2021/10/12 09:53:37;;;;;;;17.33;11.10;;;;;;;;;;4990734;28;20110;-61
2021/10/12 09:56:03;;;;;;;20.30;10.82;;;;;;;;;;4994023;28;20442;-60
2021/10/12 09:58:34;;;;;;;20.42;12.10;;;;;;;;;;5003665;28;20038;-60
2021/10/12 10:01:01;;;;;;;20.17;12.65;;;;;;;;;;4993524;28;20030;-62
2021/10/12 10:03:29;;;;;;;22.75;13.55;;;;;;;;;;5003743;28;20025;-61
2021/10/12 10:05:57;;;;;;;23.58;14.40;;;;;;;;;;5010693;28;20068;-61
2021/10/12 10:08:22;;;;;;;25.80;15.55;;;;;;;;;;5004162;28;20053;-61
2021/10/12 10:10:47;;;;;;;27.40;16.83;;;;;;;;;;4990699;28;20056;-62
2021/10/12 10:13:18;;;;;;;28.77;17.13;;;;;;;;;;4997201;28;20038;-61
2021/10/12 10:15:44;;;;;;;30.15;17.10;;;;;;;;;;4995921;28;20023;-62
2021/10/12 10:18:09;;;;;;;31.33;17.52;;;;;;;;;;4996475;28;20022;-61
2021/10/12 10:20:34;;;;;;;31.15;17.92;;;;;;;;;;4991048;28;20038;-61
2021/10/12 10:23:00;;;;;;;31.63;18.90;;;;;;;;;;4989678;28;20030;-60
2021/10/12 10:25:26;;;;;;;31.08;18.13;;;;;;;;;;4989322;28;20034;-62
2021/10/12 10:27:51;;;;;;;31.30;18.50;;;;;;;;;;4998585;28;20056;-61
2021/10/12 10:30:28;;;;;;;30.67;19.25;;;;;;;;;;4999021;28;20022;-61
2021/10/12 10:32:53;;;;;;;32.78;19.17;;;;;;;;;;4997463;28;20579;-60
2021/10/12 10:35:31;;;;;;;32.17;19.58;;;;;;;;;;4993919;28;20074;-62
2021/10/12 10:38:16;;;;;;;28.55;16.98;;;;;;;;;;5000477;28;20014;-62
2021/10/12 10:40:41;;;;;;;28.50;16.17;;;;;;;;;;5003067;28;20044;-62
2021/10/12 10:43:06;;;;;;;28.63;16.23;;;;;;;;;;4997860;28;20034;-61
2021/10/12 10:45:39;;;;;;;23.75;16.23;;;;;;;;;;4995512;28;20037;-62
2021/10/12 10:48:04;;;;;;;25.45;16.15;;;;;;;;;;4997608;28;20085;-62
2021/10/12 10:50:30;;;;;;;26.50;15.38;;;;;;;;;;4996227;28;20027;-61
2021/10/12 10:52:57;;;;;;;28.73;16.35;;;;;;;;;;5000492;28;20041;-62
2021/10/12 10:55:26;;;;;;;24.73;15.75;;;;;;;;;;4989996;28;20027;-61
2021/10/12 10:58:09;;;;;;;21.35;13.75;;;;;;;;;;4996476;28;20018;-61
2021/10/12 11:00:35;;;;;;;24.30;15.40;;;;;;;;;;4998401;28;20054;-62
2021/10/12 11:03:01;;;;;;;24.27;14.88;;;;;;;;;;5007145;28;20101;-60
2021/10/12 11:05:30;;;;;;;23.50;13.68;;;;;;;;;;5004808;28;20052;-61
2021/10/12 11:08:12;;;;;;;23.77;14.68;;;;;;;;;;4989320;28;20015;-61
2021/10/12 11:10:37;;;;;;;24.88;14.85;;;;;;;;;;4998311;28;20509;-61
2021/10/12 11:13:03;;;;;;;25.48;14.48;;;;;;;;;;4998366;28;20169;-61
2021/10/12 11:15:28;;;;;;;22.20;14.68;;;;;;;;;;4993417;28;20022;-61
2021/10/12 11:18:22;;;;;;;24.20;14.95;;;;;;;;;;4998903;28;20041;-64
2021/10/12 11:20:50;;;;;;;23.15;14.90;;;;;;;;;;4983391;28;20026;-62
2021/10/12 11:23:22;;;;;;;23.15;13.85;;;;;;;;;;4989387;28;20061;-61
2021/10/12 11:25:53;;;;;;;22.13;14.27;;;;;;;;;;4989671;28;20046;-62
2021/10/12 11:28:21;;;;;;;16.83;12.18;;;;;;;;;;4989568;28;20144;-61
2021/10/12 11:30:46;;;;;;;18.38;12.65;;;;;;;;;;4988672;28;20046;-62
2021/10/12 11:33:12;;;;;;;20.15;13.23;;;;;;;;;;4990188;28;20458;-61
2021/10/12 11:35:38;;;;;;;21.13;12.60;;;;;;;;;;4989619;28;20030;-60
2021/10/12 11:38:03;;;;;;;22.48;13.90;;;;;;;;;;4993129;28;20045;-61
2021/10/12 11:40:29;;;;;;;19.90;12.82;;;;;;;;;;4990045;28;20426;-62
2021/10/12 11:42:59;;;;;;;19.40;12.32;;;;;;;;;;4989887;28;20034;-62
2021/10/12 11:45:24;;;;;;;21.67;12.88;;;;;;;;;;4987387;28;20030;-63
2021/10/12 11:47:49;;;;;;;20.38;12.40;;;;;;;;;;4990376;28;20161;-62
2021/10/12 11:50:15;;;;;;;18.58;12.05;;;;;;;;;;4991436;28;20045;-61
2021/10/12 11:52:44;;;;;;;19.92;12.80;;;;;;;;;;4989202;28;20438;-61
2021/10/12 11:55:11;;;;;;;20.83;12.90;;;;;;;;;;4989463;28;20818;-62
2021/10/12 11:57:37;;;;;;;20.95;13.50;;;;;;;;;;4991607;28;20062;-62
2021/10/12 12:00:03;;;;;;;21.42;12.77;;;;;;;;;;5008621;28;20452;-61
2021/10/12 12:02:29;;;;;;;21.08;14.48;;;;;;;;;;5008298;28;20014;-61
2021/10/12 12:04:57;;;;;;;22.80;15.15;;;;;;;;;;4998450;28;20030;-60
2021/10/12 12:07:22;;;;;;;21.63;13.85;;;;;;;;;;4997893;28;20093;-61
2021/10/12 12:09:48;;;;;;;28.02;15.30;;;;;;;;;;4996081;28;20034;-61
2021/10/12 12:12:14;;;;;;;23.92;15.75;;;;;;;;;;5005897;28;20041;-62
2021/10/12 12:14:40;;;;;;;20.05;14.20;;;;;;;;;;4998455;28;20067;-62
2021/10/12 12:17:09;;;;;;;22.42;14.65;;;;;;;;;;4995387;28;20026;-61
2021/10/12 12:19:43;;;;;;;22.42;14.32;;;;;;;;;;4997025;28;20108;-61
2021/10/12 12:22:15;;;;;;;21.42;14.02;;;;;;;;;;4994963;28;20556;-61
2021/10/12 12:24:51;;;;;;;20.60;13.65;;;;;;;;;;5005003;28;20034;-61
2021/10/12 12:27:16;;;;;;;21.58;14.82;;;;;;;;;;5010753;28;20204;-61
2021/10/12 12:29:41;;;;;;;21.50;14.65;;;;;;;;;;5010797;28;20628;-61
2021/10/12 12:32:11;;;;;;;21.83;13.23;;;;;;;;;;4997795;28;20030;-61
2021/10/12 12:34:38;;;;;;;18.48;12.73;;;;;;;;;;5005004;28;20034;-62
2021/10/12 12:37:05;;;;;;;17.83;12.18;;;;;;;;;;5011338;28;20025;-60
2021/10/12 12:39:32;;;;;;;22.98;13.52;;;;;;;;;;5004623;28;20034;-61
2021/10/12 12:41:58;;;;;;;22.30;14.07;;;;;;;;;;4998174;28;20023;-62
2021/10/12 12:44:26;;;;;;;21.23;12.48;;;;;;;;;;4995973;28;20030;-61
2021/10/12 12:46:56;;;;;;;19.45;12.50;;;;;;;;;;4998726;28;20034;-60
2021/10/12 12:49:23;;;;;;;21.73;12.80;;;;;;;;;;5004430;28;20034;-61
2021/10/12 12:51:48;;;;;;;20.77;12.90;;;;;;;;;;5000230;28;20022;-61
2021/10/12 12:54:32;;;;;;;22.80;13.88;;;;;;;;;;4998726;28;20041;-61
2021/10/12 12:57:04;;;;;;;22.17;13.73;;;;;;;;;;5004684;28;20592;-61
2021/10/12 12:59:29;;;;;;;19.70;12.93;;;;;;;;;;4991915;28;20108;-62
2021/10/12 13:01:55;;;;;;;20.98;13.52;;;;;;;;;;4995953;28;20034;-61
2021/10/12 13:04:21;;;;;;;23.50;14.00;;;;;;;;;;4998172;28;20022;-63
2021/10/12 13:06:46;;;;;;;24.75;14.63;;;;;;;;;;5000811;28;20185;-61
2021/10/12 13:09:11;;;;;;;23.48;14.60;;;;;;;;;;5000956;28;20475;-62
2021/10/12 13:11:39;;;;;;;21.50;14.95;;;;;;;;;;5000880;28;20026;-61
2021/10/12 13:14:04;;;;;;;23.48;14.30;;;;;;;;;;4996242;28;20045;-61
2021/10/12 13:16:29;;;;;;;22.85;13.95;;;;;;;;;;4999057;28;20386;-62
2021/10/12 13:18:54;;;;;;;23.02;15.05;;;;;;;;;;4999275;28;20053;-61
2021/10/12 13:21:20;;;;;;;22.30;14.52;;;;;;;;;;4991621;28;20087;-62
2021/10/12 13:23:46;;;;;;;22.67;14.48;;;;;;;;;;4994953;28;20034;-61
2021/10/12 13:26:11;;;;;;;22.70;14.43;;;;;;;;;;5005652;28;20022;-62
2021/10/12 13:28:36;;;;;;;20.98;13.55;;;;;;;;;;4999464;28;20053;-61
2021/10/12 13:31:01;;;;;;;21.58;14.88;;;;;;;;;;4994845;28;20026;-61
2021/10/12 13:33:27;;;;;;;23.08;14.65;;;;;;;;;;5001299;28;20121;-62
2021/10/12 13:35:52;;;;;;;20.17;14.95;;;;;;;;;;4991476;28;20366;-62
2021/10/12 13:38:17;;;;;;;24.70;15.65;;;;;;;;;;5005991;28;20029;-62
2021/10/12 13:40:43;;;;;;;25.58;15.77;;;;;;;;;;5002707;28;20045;-62
2021/10/12 13:43:08;;;;;;;23.80;14.85;;;;;;;;;;5003096;28;20024;-61
2021/10/12 13:45:33;;;;;;;24.13;15.25;;;;;;;;;;5009380;28;20026;-62
2021/10/12 13:47:58;;;;;;;22.08;15.02;;;;;;;;;;4997665;28;20041;-62
2021/10/12 13:50:24;;;;;;;22.80;14.73;;;;;;;;;;4996525;28;20040;-60
2021/10/12 13:52:49;;;;;;;21.85;14.90;;;;;;;;;;4991682;28;20678;-62
2021/10/12 13:55:14;;;;;;;23.33;14.38;;;;;;;;;;4990762;28;20562;-62
2021/10/12 13:57:40;;;;;;;23.80;15.70;;;;;;;;;;4991182;28;20030;-61
2021/10/12 14:00:06;;;;;;;24.13;15.35;;;;;;;;;;4996769;28;20074;-61
2021/10/12 14:02:32;;;;;;;20.42;14.27;;;;;;;;;;4994298;28;20022;-61
2021/10/12 14:04:57;;;;;;;24.77;13.50;;;;;;;;;;5006743;28;20033;-61
2021/10/12 14:07:22;;;;;;;23.23;13.85;;;;;;;;;;4998712;28;20049;-62
2021/10/12 14:09:47;;;;;;;21.33;13.60;;;;;;;;;;4999368;28;20014;-61
2021/10/12 14:12:16;;;;;;;21.90;14.32;;;;;;;;;;5000427;28;20603;-61
2021/10/12 14:14:42;;;;;;;17.70;12.23;;;;;;;;;;5001011;28;20076;-61